Time;durP1;ratioP1;P1;durP2;ratioP2;P2;SDS_P1;SDS_P2;PMS_P1;PMS_P2;Temp;Humidity;BMP_temperature;BMP_pressure;BME280_temperature;BME280_humidity;BME280_pressure;Samples;Min_cycle;Max_cycle;Signal;HPM_P1;HPM_P2
2021/12/10 00:02:11;;;;;;;4.40;2.40;;;;;;;-12.41;92.03;102212.25;5034826;28;20127;-64
2021/12/10 00:04:41;;;;;;;5.05;2.15;;;;;;;-12.42;91.77;102212.16;5034319;28;20049;-65
2021/12/10 00:07:14;;;;;;;3.65;1.95;;;;;;;-12.38;92.19;102212.47;5034263;28;20077;-66
2021/12/10 00:09:44;;;;;;;6.65;3.78;;;;;;;-12.41;92.12;102202.22;5034548;28;20511;-65
2021/12/10 00:12:14;;;;;;;3.17;2.72;;;;;;;-12.44;92.47;102207.03;5034654;28;20044;-67
2021/12/10 00:14:42;;;;;;;1.70;1.48;;;;;;;-12.44;92.64;102209.56;5034612;28;20144;-66
2021/12/10 00:17:10;;;;;;;;;;;;;;;-12.48;92.31;102196.72;5034962;28;20077;-65
2021/12/10 00:19:44;;;;;;;7.10;2.63;;;;;;;-12.57;91.63;102202.06;5034531;28;19968;-65
2021/12/10 00:22:13;;;;;;;3.25;2.53;;;;;;;-12.52;92.52;102193.16;5034865;28;20049;-65
2021/12/10 00:24:43;;;;;;;3.00;2.38;;;;;;;-12.52;92.01;102201.56;5035210;28;20500;-65
2021/12/10 00:27:12;;;;;;;3.70;2.70;;;;;;;-12.55;92.65;102196.34;5034791;28;20076;-66
2021/12/10 00:29:48;;;;;;;3.45;2.65;;;;;;;-12.51;92.43;102188.25;5034359;28;20146;-65
2021/12/10 00:32:28;;;;;;;1.65;1.52;;;;;;;-12.47;92.46;102188.44;5034331;28;20053;-65
2021/12/10 00:34:55;;;;;;;3.17;2.60;;;;;;;-12.42;92.53;102192.09;5034158;28;20049;-65
2021/12/10 00:37:24;;;;;;;2.40;2.05;;;;;;;-12.47;91.97;102184.28;5034679;28;20567;-64
2021/12/10 00:39:56;;;;;;;3.97;2.75;;;;;;;-12.48;91.95;102181.69;5033978;28;20067;-64
2021/12/10 00:42:29;;;;;;;8.48;2.70;;;;;;;-12.47;92.01;102191.81;5033993;28;20483;-65
2021/12/10 00:44:57;;;;;;;2.25;2.05;;;;;;;-12.42;92.08;102187.94;5033837;28;20045;-66
2021/12/10 00:47:25;;;;;;;3.83;3.10;;;;;;;-12.44;91.93;102186.13;5033804;28;20049;-66
2021/12/10 00:49:52;;;;;;;3.05;2.72;;;;;;;-12.44;91.64;102188.63;5033953;28;20140;-65
2021/12/10 00:52:20;;;;;;;2.53;1.83;;;;;;;-12.51;91.96;102190.78;5032966;28;20132;-64
2021/12/10 00:54:48;;;;;;;1.45;1.13;;;;;;;-12.53;91.54;102192.31;5033738;28;20136;-66
2021/12/10 00:57:16;;;;;;;3.28;2.40;;;;;;;-12.55;92.00;102190.47;5033895;28;20053;-67
2021/12/10 00:59:47;;;;;;;2.92;2.25;;;;;;;-12.59;92.24;102196.94;5033934;28;20053;-65
2021/12/10 01:02:17;;;;;;;2.58;2.08;;;;;;;-12.55;91.94;102188.84;5033904;28;20141;-66
2021/12/10 01:04:47;;;;;;;4.40;2.58;;;;;;;-12.53;92.25;102183.94;5034070;28;20133;-66
2021/12/10 01:07:17;;;;;;;3.00;2.47;;;;;;;-12.55;92.16;102198.00;5033521;28;20049;-66
2021/12/10 01:09:47;;;;;;;2.15;1.63;;;;;;;-12.50;92.12;102202.53;5033937;28;20144;-66
2021/12/10 01:12:19;;;;;;;1.38;1.27;;;;;;;-12.48;92.58;102181.69;5033625;28;20128;-65
2021/12/10 01:15:06;;;;;;;4.00;2.67;;;;;;;-12.46;92.60;102177.63;5033634;28;20046;-66
2021/12/10 01:26:08;;;;;;;8.13;3.67;;;;;;;-12.24;92.67;102207.41;5033211;28;20052;-64
2021/12/10 01:28:37;;;;;;;6.28;2.83;;;;;;;-12.19;92.77;102204.41;5033069;28;20476;-63
2021/12/10 01:31:06;;;;;;;4.78;2.53;;;;;;;-12.17;92.11;102194.47;5033346;28;20125;-62
2021/12/10 01:33:33;;;;;;;5.72;3.22;;;;;;;-12.14;92.34;102193.00;5033152;28;20124;-63
2021/12/10 01:36:06;;;;;;;;;;;;;;;-12.10;92.05;102181.50;5033717;28;20586;-64
2021/12/10 01:38:33;;;;;;;7.28;3.85;;;;;;;-12.11;92.27;102170.59;5033008;28;19921;-63
2021/12/10 01:41:01;;;;;;;;;;;;;;;-12.06;92.45;102173.38;5033403;28;20575;-64
2021/12/10 01:43:33;;;;;;;2.13;1.92;;;;;;;-12.08;92.58;102167.41;5033117;28;19928;-64
2021/12/10 01:46:06;;;;;;;8.73;4.32;;;;;;;-12.03;92.57;102181.09;5032939;28;20045;-63
2021/12/10 01:48:39;;;;;;;3.47;2.70;;;;;;;-11.96;92.93;102175.66;5032724;28;20053;-64
2021/12/10 01:51:08;;;;;;;5.38;3.65;;;;;;;-11.90;92.85;102162.59;5032731;28;20046;-63
2021/12/10 01:53:38;;;;;;;5.07;3.38;;;;;;;-11.93;92.25;102150.72;5032806;28;20128;-63
2021/12/10 01:56:09;;;;;;;6.28;2.65;;;;;;;-11.91;92.79;102155.84;5032536;28;20149;-64
2021/12/10 01:58:36;;;;;;;3.40;2.65;;;;;;;-11.91;92.25;102151.69;5032841;28;20073;-64
2021/12/10 02:01:07;;;;;;;5.55;3.60;;;;;;;-11.88;92.35;102146.00;5032724;28;20136;-63
2021/12/10 02:03:36;;;;;;;7.43;4.15;;;;;;;-11.90;92.33;102145.03;5032833;28;20053;-64
2021/12/10 02:06:04;;;;;;;7.97;4.25;;;;;;;-11.93;92.55;102144.84;5032739;28;20068;-63
2021/12/10 02:08:31;;;;;;;5.45;4.15;;;;;;;-11.93;92.14;102143.19;5032242;28;20140;-63
2021/12/10 02:10:59;;;;;;;;;;;;;;;-11.95;92.01;102146.41;5032785;28;20041;-63
2021/12/10 02:13:26;;;;;;;2.80;2.42;;;;;;;-11.94;92.45;102146.50;5032327;28;19921;-66
2021/12/10 02:15:54;;;;;;;3.70;3.05;;;;;;;-11.94;92.39;102138.97;5032565;28;20077;-66
2021/12/10 02:18:21;;;;;;;;;;;;;;;-12.00;92.43;102141.09;5032637;28;20518;-64
2021/12/10 02:20:53;;;;;;;4.93;2.88;;;;;;;-11.98;92.29;102142.06;5032610;28;19921;-65
2021/12/10 02:23:22;;;;;;;4.68;3.20;;;;;;;-11.97;92.46;102140.41;5032974;28;20077;-63
2021/12/10 02:25:50;;;;;;;10.50;5.20;;;;;;;-11.97;92.07;102130.38;5032799;28;20111;-63
2021/12/10 02:28:17;;;;;;;6.18;3.83;;;;;;;-12.00;92.01;102126.03;5033280;28;20144;-62
2021/12/10 02:30:45;;;;;;;5.13;3.05;;;;;;;-11.98;92.05;102114.47;5032995;28;20476;-62
2021/12/10 02:33:13;;;;;;;5.68;3.80;;;;;;;-12.06;92.17;102115.66;5033411;28;20113;-63
2021/12/10 02:35:40;;;;;;;5.65;2.88;;;;;;;-12.07;92.16;102126.50;5033991;28;20053;-64
2021/12/10 02:38:09;;;;;;;7.43;4.28;;;;;;;-12.07;92.44;102116.44;5034727;28;20109;-64
2021/12/10 02:40:38;;;;;;;5.63;3.58;;;;;;;-12.04;92.74;102110.75;5032864;28;20144;-63
2021/12/10 02:43:09;;;;;;;4.38;2.78;;;;;;;-12.02;92.61;102109.16;5032513;28;20140;-63
2021/12/10 02:45:38;;;;;;;4.55;2.92;;;;;;;-11.99;92.09;102111.88;5032046;28;20045;-64
2021/12/10 02:48:06;;;;;;;6.07;3.33;;;;;;;-11.95;92.37;102093.69;5031831;28;20052;-63
2021/12/10 02:50:35;;;;;;;3.45;2.55;;;;;;;-11.94;92.52;102091.28;5032031;28;20080;-64
2021/12/10 02:53:03;;;;;;;6.82;3.55;;;;;;;-11.95;92.12;102097.06;5031913;28;20122;-63
2021/12/10 02:55:33;;;;;;;8.02;2.90;;;;;;;-11.90;92.40;102103.22;5031615;28;20046;-62
2021/12/10 02:58:05;;;;;;;3.67;2.38;;;;;;;-11.91;92.42;102100.63;5031821;28;20136;-63
2021/12/10 03:00:40;;;;;;;3.25;2.45;;;;;;;-11.88;92.00;102090.75;5031830;28;20103;-62
2021/12/10 03:03:07;;;;;;;5.07;3.38;;;;;;;-11.88;92.25;102096.63;5031807;28;20053;-63
2021/12/10 03:05:34;;;;;;;5.50;3.40;;;;;;;-11.87;92.47;102093.38;5031777;28;20571;-63
2021/12/10 03:08:01;;;;;;;5.47;3.58;;;;;;;-11.87;92.24;102097.50;5031743;28;20233;-63
2021/12/10 03:10:31;;;;;;;5.80;3.75;;;;;;;-11.90;92.16;102103.22;5031533;28;20144;-63
2021/12/10 03:13:01;;;;;;;4.40;2.92;;;;;;;-11.87;92.44;102089.97;5031713;28;20064;-63
2021/12/10 03:15:30;;;;;;;3.15;2.25;;;;;;;-11.89;92.00;102077.34;5034480;28;20072;-62
2021/12/10 03:18:00;;;;;;;8.77;4.93;;;;;;;-11.88;92.46;102079.06;5035522;28;20127;-64
2021/12/10 03:20:30;;;;;;;5.72;3.30;;;;;;;-11.84;91.83;102070.06;5035520;28;20053;-62
2021/12/10 03:22:57;;;;;;;7.10;2.97;;;;;;;-11.84;92.19;102062.53;5035777;28;20050;-64
2021/12/10 03:25:24;;;;;;;7.38;4.35;;;;;;;-11.84;92.07;102063.38;5035630;28;20055;-63
2021/12/10 03:27:51;;;;;;;5.72;3.97;;;;;;;-11.79;91.91;102055.22;5035666;28;20927;-65
2021/12/10 03:30:21;;;;;;;;;;;;;;;-11.83;91.74;102059.22;5035804;28;20180;-64
2021/12/10 03:32:49;;;;;;;6.70;4.03;;;;;;;-11.80;91.49;102059.38;5035458;28;20004;-65
2021/12/10 03:35:24;;;;;;;2.45;1.77;;;;;;;-11.79;92.12;102060.25;5035566;28;20056;-64
2021/12/10 03:37:51;;;;;;;11.65;2.65;;;;;;;-11.85;92.42;102053.25;5035951;28;20046;-63
2021/12/10 03:40:20;;;;;;;5.63;3.30;;;;;;;-11.79;91.88;102068.66;5035261;28;20055;-64
2021/12/10 03:42:49;;;;;;;5.45;3.38;;;;;;;-11.81;91.48;102066.84;5035231;28;20128;-64
2021/12/10 03:45:18;;;;;;;3.28;2.38;;;;;;;-11.74;91.94;102073.94;5034956;28;20053;-63
2021/12/10 03:47:47;;;;;;;7.03;3.95;;;;;;;-11.72;91.75;102085.78;5034911;28;20061;-62
2021/12/10 03:50:23;;;;;;;3.63;3.00;;;;;;;-11.76;91.36;102076.38;5035132;28;20144;-64
2021/12/10 03:52:50;;;;;;;8.63;4.72;;;;;;;-11.74;91.40;102076.44;5035190;28;20048;-62
2021/12/10 03:55:18;;;;;;;3.15;2.67;;;;;;;-11.79;91.73;102066.16;5034919;28;20059;-62
2021/12/10 03:57:46;;;;;;;6.90;3.63;;;;;;;-11.79;91.77;102065.28;5034712;28;20107;-64
2021/12/10 04:00:15;;;;;;;5.90;3.22;;;;;;;-11.82;92.15;102050.91;5034704;28;20140;-62
2021/12/10 04:02:42;;;;;;;3.67;2.92;;;;;;;-11.81;91.92;102052.66;5034761;28;20041;-62
2021/12/10 04:05:11;;;;;;;6.45;3.65;;;;;;;-11.79;91.59;102058.63;5035080;28;20056;-63
2021/12/10 04:07:38;;;;;;;1.88;1.77;;;;;;;-11.81;91.70;102044.25;5035171;28;20051;-62
2021/12/10 04:10:07;;;;;;;6.20;3.65;;;;;;;-11.78;91.15;102047.78;5034975;28;20622;-62
2021/12/10 04:12:34;;;;;;;7.72;4.05;;;;;;;-11.76;91.44;102053.78;5034735;28;20408;-63
2021/12/10 04:15:01;;;;;;;5.57;2.80;;;;;;;-11.75;91.24;102073.06;5035060;28;20132;-64
2021/12/10 04:17:28;;;;;;;3.25;2.03;;;;;;;-11.73;91.53;102075.69;5034584;28;20077;-62
2021/12/10 04:19:55;;;;;;;;;;;;;;;-11.72;91.10;102082.41;5034927;28;20059;-62
2021/12/10 04:22:32;;;;;;;9.85;4.97;;;;;;;-11.72;91.78;102088.31;5034509;28;20326;-64
2021/12/10 04:25:00;;;;;;;2.78;2.38;;;;;;;-11.72;91.50;102085.78;5034209;28;20116;-63
2021/12/10 04:27:27;;;;;;;3.40;1.90;;;;;;;-11.65;91.10;102092.03;5034196;28;20053;-62
2021/12/10 04:29:58;;;;;;;4.88;3.15;;;;;;;-11.66;91.61;102093.69;5034321;28;20308;-63
2021/12/10 04:32:26;;;;;;;4.90;3.53;;;;;;;-11.69;91.42;102098.50;5034281;28;20054;-65
2021/12/10 04:34:54;;;;;;;3.60;2.63;;;;;;;-11.68;90.96;102085.19;5034145;28;20069;-67
2021/12/10 04:37:22;;;;;;;5.85;3.40;;;;;;;-11.64;91.41;102092.09;5034273;28;20057;-67
2021/12/10 04:39:50;;;;;;;8.38;4.47;;;;;;;-11.67;91.02;102084.41;5034141;28;20290;-65
2021/12/10 04:42:19;;;;;;;3.33;2.65;;;;;;;-11.64;90.80;102082.06;5034018;28;20136;-67
2021/12/10 04:44:47;;;;;;;5.85;3.50;;;;;;;-11.65;91.58;102070.28;5033984;28;20136;-66
2021/12/10 04:47:14;;;;;;;3.78;2.30;;;;;;;-11.62;91.25;102080.50;5034009;28;20133;-66
2021/12/10 04:49:41;;;;;;;3.90;2.33;;;;;;;-11.65;91.25;102085.38;5033681;28;20140;-67
2021/12/10 04:52:08;;;;;;;7.53;2.70;;;;;;;-11.62;91.13;102083.00;5033826;28;20148;-66
2021/12/10 04:54:37;;;;;;;;;;;;;;;-11.64;90.88;102072.00;5034217;28;20137;-64
2021/12/10 04:57:06;;;;;;;8.20;3.85;;;;;;;-11.65;91.32;102064.41;5033519;28;20385;-67
2021/12/10 04:59:35;;;;;;;8.02;3.92;;;;;;;-11.67;91.14;102076.00;5033795;28;20141;-67
2021/12/10 05:02:05;;;;;;;6.75;3.28;;;;;;;-11.68;91.09;102085.19;5033931;28;20081;-62
2021/12/10 05:04:32;;;;;;;6.25;3.25;;;;;;;-11.68;91.69;102089.34;5033747;28;20095;-63
2021/12/10 05:06:59;;;;;;;;;;;;;;;-11.65;90.84;102072.81;5033953;28;20522;-61
2021/12/10 05:09:27;;;;;;;6.78;4.20;;;;;;;-11.67;90.59;102076.00;5033324;28;20375;-65
2021/12/10 05:11:56;;;;;;;7.95;4.75;;;;;;;-11.76;91.14;102072.97;5033457;28;20539;-64
2021/12/10 05:14:24;;;;;;;4.43;3.30;;;;;;;-11.71;91.09;102056.53;5033445;28;20125;-63
2021/12/10 05:16:53;;;;;;;4.32;3.15;;;;;;;-11.74;91.22;102058.88;5033280;28;20072;-63
2021/12/10 05:19:23;;;;;;;6.68;3.88;;;;;;;-11.81;91.06;102060.19;5033323;28;20567;-62
2021/12/10 05:21:51;;;;;;;5.68;2.95;;;;;;;-11.82;91.17;102062.59;5033349;28;20055;-63
2021/12/10 05:24:20;;;;;;;3.15;2.15;;;;;;;-11.82;90.50;102045.88;5033217;28;20049;-62
2021/12/10 05:26:48;;;;;;;5.95;3.58;;;;;;;-11.81;91.09;102042.59;5033147;28;20064;-64
2021/12/10 05:29:17;;;;;;;3.95;2.83;;;;;;;-11.82;91.50;102035.84;5033277;28;20049;-61
2021/12/10 05:31:45;;;;;;;5.93;3.65;;;;;;;-11.82;91.11;102032.47;5033115;28;20073;-63
2021/12/10 05:34:14;;;;;;;2.47;1.70;;;;;;;-11.77;90.87;102041.13;5033076;28;20050;-64
2021/12/10 05:36:41;;;;;;;5.10;3.08;;;;;;;-11.74;90.83;102049.69;5033171;28;20056;-62
2021/12/10 05:39:10;;;;;;;3.45;2.10;;;;;;;-11.72;90.55;102057.31;5033163;28;20053;-65
2021/12/10 05:41:37;;;;;;;8.57;3.83;;;;;;;-11.68;90.16;102056.72;5032870;28;20175;-63
2021/12/10 05:44:05;;;;;;;3.10;2.40;;;;;;;-11.68;90.99;102050.03;5032770;28;20046;-64
2021/12/10 05:46:37;;;;;;;1.40;1.30;;;;;;;-11.64;90.97;102054.44;5032883;28;20045;-63
2021/12/10 05:49:04;;;;;;;5.55;3.22;;;;;;;-11.64;90.60;102056.94;5032813;28;20068;-62
2021/12/10 05:51:31;;;;;;;2.85;1.75;;;;;;;-11.61;90.41;102063.78;5032703;28;20399;-62
2021/12/10 05:53:58;;;;;;;5.00;2.22;;;;;;;-11.61;90.62;102061.28;5032671;28;20507;-63
2021/12/10 05:56:25;;;;;;;3.30;2.67;;;;;;;-11.60;90.45;102052.13;5032647;28;20045;-63
2021/12/10 05:58:52;;;;;;;4.47;2.70;;;;;;;-11.60;90.24;102054.63;5032844;28;20385;-62
2021/12/10 06:01:21;;;;;;;4.78;3.25;;;;;;;-11.61;89.98;102053.75;5032637;28;20103;-63
2021/12/10 06:03:53;;;;;;;8.05;3.92;;;;;;;-11.59;90.24;102064.75;5032398;28;20041;-62
2021/12/10 06:06:21;;;;;;;4.20;3.05;;;;;;;-11.59;90.02;102058.88;5032175;28;20076;-62
2021/12/10 06:08:48;;;;;;;7.25;3.67;;;;;;;-11.59;90.17;102069.78;5032328;28;20145;-62
2021/12/10 06:11:17;;;;;;;5.63;3.38;;;;;;;-11.56;90.39;102067.41;5032279;28;20053;-62
2021/12/10 06:13:45;;;;;;;3.72;1.85;;;;;;;-11.52;89.90;102060.94;5032189;28;20056;-62
2021/12/10 06:16:12;;;;;;;2.92;2.65;;;;;;;-11.54;90.13;102058.34;5032007;28;20042;-61
2021/12/10 06:18:40;;;;;;;1.98;1.75;;;;;;;-11.50;89.87;102071.94;5032242;28;20045;-62
2021/12/10 06:21:08;;;;;;;3.90;2.83;;;;;;;-11.52;89.86;102066.81;5032200;28;20045;-62
2021/12/10 06:23:35;;;;;;;7.10;3.38;;;;;;;-11.51;89.94;102071.06;5032174;28;20464;-62
2021/12/10 06:26:03;;;;;;;3.53;2.65;;;;;;;-11.50;90.00;102062.75;5032486;28;20053;-63
2021/12/10 06:28:31;;;;;;;5.85;4.72;;;;;;;-11.55;90.74;102060.78;5032388;28;20140;-62
2021/12/10 06:30:58;;;;;;;;;;;;;;;-11.50;90.14;102052.72;5032174;28;20144;-62
2021/12/10 06:33:27;;;;;;;;;;;;;;;-11.48;90.06;102056.19;5030418;28;19927;-61
2021/12/10 06:35:56;;;;;;;4.25;2.15;;;;;;;-11.52;89.98;102061.81;5031466;28;20004;-63
2021/12/10 06:38:25;;;;;;;2.85;1.65;;;;;;;-11.46;90.35;102062.13;5031962;28;20045;-63
2021/12/10 06:40:53;;;;;;;9.07;2.95;;;;;;;-11.50;90.74;102055.22;5031820;28;20046;-63
2021/12/10 06:43:20;;;;;;;5.95;2.65;;;;;;;-11.43;90.56;102064.84;5031772;28;20047;-62
2021/12/10 06:45:48;;;;;;;4.03;2.78;;;;;;;-11.41;90.15;102065.75;5031974;28;20056;-62
2021/12/10 06:48:17;;;;;;;4.25;2.60;;;;;;;-11.38;90.33;102075.13;5031132;28;20478;-64
2021/12/10 06:50:47;;;;;;;3.20;1.73;;;;;;;-11.37;90.23;102070.97;5034566;28;20060;-62
2021/12/10 06:53:14;;;;;;;5.47;2.58;;;;;;;-11.37;90.34;102069.31;5035633;28;20045;-63
2021/12/10 06:55:42;;;;;;;;;;;;;;;-11.34;90.40;102071.13;5036431;28;20587;-63
2021/12/10 06:58:09;;;;;;;3.58;3.25;;;;;;;-11.34;90.04;102074.50;5036079;28;19931;-63
2021/12/10 07:00:42;;;;;;;4.97;2.85;;;;;;;-11.33;89.60;102076.22;5036085;28;20141;-63
2021/12/10 07:03:10;;;;;;;6.10;2.67;;;;;;;-11.33;89.74;102083.75;5035923;28;20049;-63
2021/12/10 07:05:37;;;;;;;4.85;2.75;;;;;;;-11.35;89.85;102079.44;5036018;28;20132;-62
2021/12/10 07:08:04;;;;;;;;;;;;;;;-11.31;89.91;102076.31;5033206;28;20077;-63
2021/12/10 07:10:31;;;;;;;5.57;3.63;;;;;;;-11.31;89.61;102083.88;5035337;28;19960;-62
2021/12/10 07:13:00;;;;;;;5.68;3.33;;;;;;;-11.35;89.43;102075.31;5035298;28;20522;-65
2021/12/10 07:15:27;;;;;;;4.20;2.97;;;;;;;-11.28;89.38;102073.97;5035116;28;20104;-63
2021/12/10 07:17:54;;;;;;;;;;;;;;;-11.38;90.07;102065.06;5035485;28;20522;-64
2021/12/10 07:20:23;;;;;;;5.70;2.50;;;;;;;-11.42;89.89;102064.03;5035301;28;19921;-65
2021/12/10 07:22:51;;;;;;;2.63;2.15;;;;;;;-11.37;89.54;102056.75;5035263;28;20056;-63
2021/12/10 07:25:20;;;;;;;2.20;2.00;;;;;;;-11.40;89.75;102057.47;5035374;28;20145;-64
2021/12/10 07:27:47;;;;;;;2.38;1.70;;;;;;;-11.42;89.60;102060.66;5034331;28;20488;-65
2021/12/10 07:30:16;;;;;;;2.15;1.95;;;;;;;-11.43;89.36;102077.41;5035081;28;20092;-65
2021/12/10 07:32:44;;;;;;;3.95;2.88;;;;;;;-11.44;89.05;102084.84;5035562;28;20045;-63
2021/12/10 07:35:12;;;;;;;3.17;2.45;;;;;;;-11.50;89.53;102082.84;5035215;28;20056;-65
2021/12/10 07:37:40;;;;;;;6.63;2.75;;;;;;;-11.54;89.99;102088.47;5035018;28;20050;-63
2021/12/10 07:40:08;;;;;;;;;;;;;;;-11.54;88.98;102090.13;5034150;28;20144;-65
2021/12/10 07:42:35;;;;;;;1.73;1.63;;;;;;;-11.54;89.65;102097.66;5033240;28;20442;-65
2021/12/10 07:45:02;;;;;;;;;;;;;;;-11.51;89.33;102097.81;5035286;28;20156;-62
2021/12/10 07:47:34;;;;;;;;;;;;;;;-11.45;89.23;102083.13;5033169;28;20398;-63
2021/12/10 07:50:02;;;;;;;8.30;3.33;;;;;;;-11.47;89.06;102070.47;5033473;28;19928;-63
2021/12/10 07:52:33;;;;;;;4.68;2.63;;;;;;;-11.51;90.19;102058.50;5034208;28;20095;-64
2021/12/10 07:55:02;;;;;;;2.42;1.52;;;;;;;-11.42;89.16;102064.03;5034089;28;20059;-63
2021/12/10 07:57:29;;;;;;;6.90;2.13;;;;;;;-11.43;89.69;102057.31;5033194;28;20144;-62
2021/12/10 07:59:56;;;;;;;;;;;;;;;-11.51;89.42;102068.53;5033112;28;20049;-63
2021/12/10 08:02:23;;;;;;;1.65;1.52;;;;;;;-11.46;89.07;102062.13;5029203;28;19928;-66
2021/12/10 08:04:52;;;;;;;2.85;2.25;;;;;;;-11.48;89.35;102066.22;5034349;28;20132;-64
2021/12/10 08:07:19;;;;;;;3.10;2.10;;;;;;;-11.47;89.04;102067.09;5035698;28;20046;-63
2021/12/10 08:09:46;;;;;;;3.55;2.38;;;;;;;-11.45;89.06;102058.84;5035725;28;20144;-64
2021/12/10 08:12:13;;;;;;;5.03;2.17;;;;;;;-11.48;89.53;102038.59;5035287;28;20478;-64
2021/12/10 08:14:40;;;;;;;;;;;;;;;-11.48;89.54;102040.22;5034993;28;20506;-62
2021/12/10 08:17:07;;;;;;;;;;;;;;;-11.48;89.56;102043.63;5034728;28;20023;-64
2021/12/10 08:19:33;;;;;;;;;;;;;;;-11.45;89.64;102038.75;5034849;28;19967;-65
2021/12/10 08:22:05;;;;;;;3.83;2.55;;;;;;;-11.44;89.73;102042.13;5034432;28;19956;-62
2021/12/10 08:24:32;;;;;;;2.78;2.30;;;;;;;-11.47;89.32;102042.81;5034144;28;20706;-64
2021/12/10 08:26:59;;;;;;;1.33;1.23;;;;;;;-11.37;89.00;102044.19;5034397;28;20083;-62
2021/12/10 08:29:26;;;;;;;;;;;;;;;-11.33;89.74;102032.66;5034730;28;20048;-65
2021/12/10 08:31:54;;;;;;;3.03;1.92;;;;;;;-11.31;89.28;102026.94;5034222;28;20016;-63
2021/12/10 08:34:22;;;;;;;2.85;2.05;;;;;;;-11.25;89.47;102019.75;5034426;28;20451;-61
2021/12/10 08:36:49;;;;;;;5.53;3.25;;;;;;;-11.18;88.85;102014.25;5034067;28;20037;-63
2021/12/10 08:39:17;;;;;;;;;;;;;;;-11.10;89.05;102017.16;5034161;28;20144;-65
2021/12/10 08:41:44;;;;;;;2.55;1.92;;;;;;;-11.09;89.33;102008.00;5033998;28;19921;-65
2021/12/10 08:44:13;;;;;;;1.55;1.45;;;;;;;-11.09;89.38;102008.00;5034047;28;20571;-65
2021/12/10 08:46:43;;;;;;;2.25;1.77;;;;;;;-11.05;87.86;102014.91;5033989;28;20053;-66
2021/12/10 08:49:13;;;;;;;2.05;1.80;;;;;;;-11.04;88.40;102012.47;5033750;28;20867;-65
2021/12/10 08:51:45;;;;;;;1.70;1.60;;;;;;;-11.08;88.25;102002.19;5033643;28;20136;-65
2021/12/10 08:54:14;;;;;;;3.35;2.25;;;;;;;-11.06;88.13;102014.03;5033847;28;20132;-65
2021/12/10 08:56:43;;;;;;;3.03;2.22;;;;;;;-11.06;88.64;102004.00;5033776;28;20049;-66
2021/12/10 08:59:10;;;;;;;2.63;1.75;;;;;;;-10.99;87.99;102007.69;5033045;28;20056;-66
2021/12/10 09:01:41;;;;;;;6.05;3.67;;;;;;;-10.97;87.98;102018.69;5033282;28;20051;-64
2021/12/10 09:04:09;;;;;;;3.95;2.47;;;;;;;-10.94;87.95;102010.44;5033510;28;20495;-68
2021/12/10 09:06:40;;;;;;;1.55;1.45;;;;;;;-10.92;88.44;102008.88;5033475;28;20045;-65
2021/12/10 09:09:11;;;;;;;5.80;2.63;;;;;;;-10.90;88.24;101995.59;5033724;28;20057;-66
2021/12/10 09:11:39;;;;;;;2.25;1.90;;;;;;;-10.91;88.21;101995.53;5032871;28;20137;-65
2021/12/10 09:14:08;;;;;;;1.77;1.65;;;;;;;-10.84;88.20;101995.03;5033056;28;20124;-63
2021/12/10 09:16:36;;;;;;;5.25;2.42;;;;;;;-10.86;87.56;101994.97;5032993;28;20513;-62
2021/12/10 09:19:09;;;;;;;2.58;2.08;;;;;;;-10.83;88.94;101996.78;5033331;28;20084;-67
2021/12/10 09:21:36;;;;;;;2.90;2.65;;;;;;;-10.87;87.64;101990.72;5033000;28;20055;-63
2021/12/10 09:24:07;;;;;;;3.55;2.55;;;;;;;-10.90;88.04;101987.19;5033148;28;20403;-65
2021/12/10 09:26:36;;;;;;;1.50;1.40;;;;;;;-10.86;88.08;101986.56;5033067;28;20045;-66
2021/12/10 09:29:05;;;;;;;3.28;2.67;;;;;;;-10.87;87.54;101980.66;5032681;28;20072;-66
2021/12/10 09:31:36;;;;;;;2.15;1.95;;;;;;;-10.83;86.47;101989.25;5032955;28;20140;-66
2021/12/10 09:34:04;;;;;;;5.50;2.75;;;;;;;-10.82;87.25;101998.50;5032724;28;20060;-66
2021/12/10 09:36:33;;;;;;;3.45;2.38;;;;;;;-10.88;87.80;101973.91;5033383;28;20065;-66
2021/12/10 09:39:00;;;;;;;3.83;2.50;;;;;;;-10.87;87.09;101994.88;5032956;28;20045;-65
2021/12/10 09:41:28;;;;;;;2.85;1.63;;;;;;;-10.90;87.44;101992.22;5032456;28;20051;-63
2021/12/10 09:43:55;;;;;;;4.38;2.88;;;;;;;-10.76;88.15;101982.09;5032931;28;20046;-66
2021/12/10 09:46:22;;;;;;;2.30;2.03;;;;;;;-10.91;86.33;101993.03;5032786;28;20551;-66
2021/12/10 09:48:51;;;;;;;4.72;2.90;;;;;;;-10.91;85.87;101995.53;5032765;28;20172;-66
2021/12/10 09:51:23;;;;;;;5.15;3.08;;;;;;;-10.93;85.70;101987.91;5032847;28;20056;-65
2021/12/10 09:53:54;;;;;;;3.85;2.50;;;;;;;-11.01;87.17;101976.59;5032253;28;20411;-65
2021/12/10 09:56:23;;;;;;;5.28;2.22;;;;;;;-10.98;86.04;101975.09;5032441;28;20054;-66
2021/12/10 09:58:53;;;;;;;2.47;2.28;;;;;;;-10.97;86.84;101974.31;5032495;28;20610;-64
2021/12/10 10:01:24;;;;;;;4.93;2.10;;;;;;;-11.10;87.44;101966.03;5032642;28;20132;-64
2021/12/10 10:04:00;;;;;;;4.30;2.65;;;;;;;-11.08;86.17;101964.47;5032540;28;20128;-65
2021/12/10 10:06:28;;;;;;;1.77;1.67;;;;;;;-11.09;86.81;101971.16;5032355;28;20061;-65
2021/12/10 10:08:55;;;;;;;3.22;2.40;;;;;;;-11.10;87.04;101971.91;5032234;28;20148;-65
2021/12/10 10:11:25;;;;;;;3.22;2.13;;;;;;;-11.19;87.98;101964.78;5032424;28;20415;-65
2021/12/10 10:13:54;;;;;;;1.45;1.33;;;;;;;-11.15;86.94;101954.88;5032318;28;20132;-64
2021/12/10 10:16:22;;;;;;;4.95;2.83;;;;;;;-11.12;87.39;101963.47;5032407;28;20060;-65
2021/12/10 10:18:51;;;;;;;4.05;2.20;;;;;;;-11.14;86.19;101947.44;5032169;28;20053;-66
2021/12/10 10:21:24;;;;;;;5.28;3.20;;;;;;;-11.12;86.10;101953.41;5031961;28;20136;-64
2021/12/10 10:23:51;;;;;;;2.90;1.92;;;;;;;-11.12;85.99;101950.00;5032260;28;20144;-65
2021/12/10 10:26:32;;;;;;;2.72;2.30;;;;;;;-11.13;87.08;101945.78;5032344;28;20148;-63
2021/12/10 10:29:00;;;;;;;3.58;2.50;;;;;;;-11.15;86.62;101942.31;5032029;28;20045;-65
2021/12/10 10:31:28;;;;;;;2.90;2.28;;;;;;;-11.11;85.32;101950.09;5033748;28;20140;-65
2021/12/10 10:34:02;;;;;;;2.53;1.90;;;;;;;-11.10;86.36;101950.97;5034371;28;20506;-63
2021/12/10 10:36:35;;;;;;;2.17;1.90;;;;;;;-11.03;85.17;101940.44;5034037;28;20084;-65
2021/12/10 10:39:09;;;;;;;1.33;1.25;;;;;;;-11.03;85.39;101948.00;5034638;28;20072;-64
2021/12/10 10:41:39;;;;;;;3.47;2.30;;;;;;;-10.98;85.87;101956.63;5034293;28;20045;-64
2021/12/10 10:44:07;;;;;;;2.35;2.03;;;;;;;-10.96;85.52;101963.47;5031904;28;20095;-64
2021/12/10 10:46:36;;;;;;;2.72;1.77;;;;;;;-10.89;85.51;101957.13;5031823;28;20133;-63
2021/12/10 10:49:06;;;;;;;2.40;2.00;;;;;;;-10.91;85.45;101955.31;5031613;28;20045;-64
2021/12/10 10:51:36;;;;;;;2.85;2.28;;;;;;;-10.90;84.61;101955.38;5032135;28;20155;-64
2021/12/10 10:54:07;;;;;;;2.70;2.25;;;;;;;-10.87;85.39;101960.53;5031768;28;20124;-64
2021/12/10 10:56:37;;;;;;;2.42;1.55;;;;;;;-10.85;84.94;101958.97;5031312;28;20549;-64
2021/12/10 10:59:12;;;;;;;4.00;2.38;;;;;;;-10.89;84.78;101949.56;5031422;28;20050;-64
2021/12/10 11:01:46;;;;;;;3.47;2.72;;;;;;;-10.85;84.86;101945.56;5031784;28;20136;-66
2021/12/10 11:04:24;;;;;;;2.17;1.98;;;;;;;-10.86;84.89;101939.66;5031738;28;20072;-65
2021/12/10 11:06:55;;;;;;;5.13;2.47;;;;;;;-10.86;84.45;101937.16;5031857;28;20075;-65
2021/12/10 11:09:25;;;;;;;6.88;2.80;;;;;;;-10.87;84.20;101937.06;5031983;28;20080;-65
2021/12/10 11:11:55;;;;;;;2.53;2.13;;;;;;;-10.93;84.63;101940.13;5031980;28;20055;-64
2021/12/10 11:14:25;;;;;;;5.50;2.88;;;;;;;-10.94;84.40;101945.97;5031905;28;20144;-64
2021/12/10 11:16:55;;;;;;;1.90;1.70;;;;;;;-10.90;84.27;101939.41;5032510;28;20046;-63
2021/12/10 11:19:25;;;;;;;3.03;2.00;;;;;;;-10.94;84.20;101961.03;5031860;28;20049;-63
2021/12/10 11:21:55;;;;;;;2.15;1.95;;;;;;;-10.97;83.90;101945.78;5032082;28;20049;-64
2021/12/10 11:24:25;;;;;;;3.55;2.40;;;;;;;-11.10;84.76;101940.91;5031869;28;20057;-64
2021/12/10 11:26:57;;;;;;;2.75;2.10;;;;;;;-11.05;84.75;101939.50;5031813;28;20084;-64
2021/12/10 11:29:40;;;;;;;4.82;2.72;;;;;;;-11.14;84.99;101937.38;5031912;28;20054;-64
2021/12/10 11:32:10;;;;;;;1.48;1.40;;;;;;;-11.08;84.05;101939.34;5031797;28;20145;-65
2021/12/10 11:34:46;;;;;;;2.83;2.40;;;;;;;-11.18;84.85;101932.97;5031854;28;20073;-66
2021/12/10 11:37:17;;;;;;;1.50;1.40;;;;;;;-11.21;84.86;101927.78;5035155;28;20482;-65
2021/12/10 11:39:47;;;;;;;2.65;2.15;;;;;;;-11.19;84.55;101918.69;5035298;28;20103;-63